sensor_id;sensor_type;location;lat;lon;timestamp;pressure;altitude;pressure_sealevel;temperature;humidity
40205;BME280;26963;42.666;23.366;2023-06-22T00:01:58;95369.00;;;21.81;57.44
40205;BME280;26963;42.666;23.366;2023-06-22T00:04:25;95358.81;;;21.78;57.29
40205;BME280;26963;42.666;23.366;2023-06-22T00:06:50;95275.34;;;21.18;56.41
40205;BME280;26963;42.666;23.366;2023-06-22T00:09:16;95370.56;;;21.82;55.23
40205;BME280;26963;42.666;23.366;2023-06-22T00:11:41;95363.13;;;21.79;55.77
40205;BME280;26963;42.666;23.366;2023-06-22T00:14:07;95362.31;;;21.78;55.32
40205;BME280;26963;42.666;23.366;2023-06-22T00:16:33;95357.94;;;21.74;55.60
40205;BME280;26963;42.666;23.366;2023-06-22T00:18:59;95354.78;;;21.72;54.54
40205;BME280;26963;42.666;23.366;2023-06-22T00:21:29;95359.88;;;21.73;55.22
40205;BME280;26963;42.666;23.366;2023-06-22T00:23:56;95354.34;;;21.70;55.40
40205;BME280;26963;42.666;23.366;2023-06-22T00:26:22;95341.72;;;21.61;56.28
40205;BME280;26963;42.666;23.366;2023-06-22T00:28:48;95345.31;;;21.65;55.47
40205;BME280;26963;42.666;23.366;2023-06-22T00:31:13;95304.63;;;21.41;55.50
40205;BME280;26963;42.666;23.366;2023-06-22T00:33:39;95336.06;;;21.54;56.21
40205;BME280;26963;42.666;23.366;2023-06-22T00:36:07;95340.84;;;21.57;56.10
40205;BME280;26963;42.666;23.366;2023-06-22T00:38:33;95311.06;;;21.32;56.83
40205;BME280;26963;42.666;23.366;2023-06-22T00:40:59;95283.94;;;21.04;55.21
40205;BME280;26963;42.666;23.366;2023-06-22T00:43:24;95340.47;;;21.43;54.66
40205;BME280;26963;42.666;23.366;2023-06-22T00:45:50;95335.28;;;21.38;54.27
40205;BME280;26963;42.666;23.366;2023-06-22T00:48:16;95330.88;;;21.33;54.17
40205;BME280;26963;42.666;23.366;2023-06-22T00:50:42;95285.09;;;21.03;54.53
40205;BME280;26963;42.666;23.366;2023-06-22T00:53:09;95334.41;;;21.33;54.58
40205;BME280;26963;42.666;23.366;2023-06-22T00:55:41;95337.91;;;21.34;55.79
40205;BME280;26963;42.666;23.366;2023-06-22T00:58:17;95326.16;;;21.30;54.90
40205;BME280;26963;42.666;23.366;2023-06-22T01:00:47;95320.63;;;21.26;54.82
40205;BME280;26963;42.666;23.366;2023-06-22T01:03:13;95249.88;;;20.78;54.46
40205;BME280;26963;42.666;23.366;2023-06-22T01:05:39;95293.94;;;21.00;53.34
40205;BME280;26963;42.666;23.366;2023-06-22T01:11:00;95352.94;;;21.44;54.13
40205;BME280;26963;42.666;23.366;2023-06-22T01:13:49;95358.38;;;21.44;54.05
40205;BME280;26963;42.666;23.366;2023-06-22T01:16:23;95351.16;;;21.35;54.71
40205;BME280;26963;42.666;23.366;2023-06-22T01:18:52;95347.31;;;21.37;54.81
40205;BME280;26963;42.666;23.366;2023-06-22T01:21:21;95354.34;;;21.38;54.23
40205;BME280;26963;42.666;23.366;2023-06-22T01:24:02;95351.88;;;21.32;54.63
40205;BME280;26963;42.666;23.366;2023-06-22T01:29:29;95358.09;;;21.33;55.12
40205;BME280;26963;42.666;23.366;2023-06-22T01:31:56;95345.28;;;21.17;55.59
40205;BME280;26963;42.666;23.366;2023-06-22T01:34:23;95366.63;;;21.31;55.86
40205;BME280;26963;42.666;23.366;2023-06-22T01:36:50;95367.44;;;21.32;55.96
40205;BME280;26963;42.666;23.366;2023-06-22T01:39:17;95354.25;;;21.18;55.66
40205;BME280;26963;42.666;23.366;2023-06-22T01:41:43;95349.06;;;21.13;56.26
40205;BME280;26963;42.666;23.366;2023-06-22T01:44:13;95369.16;;;21.24;56.54
40205;BME280;26963;42.666;23.366;2023-06-22T01:46:39;95354.50;;;21.13;57.07
40205;BME280;26963;42.666;23.366;2023-06-22T01:49:05;95367.03;;;21.17;57.48
40205;BME280;26963;42.666;23.366;2023-06-22T01:51:32;95374.84;;;21.19;58.20
40205;BME280;26963;42.666;23.366;2023-06-22T01:53:57;95367.66;;;21.11;57.92
40205;BME280;26963;42.666;23.366;2023-06-22T01:56:23;95359.56;;;20.98;58.42
40205;BME280;26963;42.666;23.366;2023-06-22T02:02:11;95366.78;;;21.07;58.19
40205;BME280;26963;42.666;23.366;2023-06-22T02:05:05;95371.41;;;21.06;58.07
40205;BME280;26963;42.666;23.366;2023-06-22T02:07:35;95379.16;;;21.20;57.24
40205;BME280;26963;42.666;23.366;2023-06-22T02:10:02;95374.69;;;21.12;56.74
40205;BME280;26963;42.666;23.366;2023-06-22T02:12:30;95369.94;;;21.09;57.37
40205;BME280;26963;42.666;23.366;2023-06-22T02:14:57;95376.50;;;21.08;57.55
40205;BME280;26963;42.666;23.366;2023-06-22T02:17:24;95377.84;;;21.14;58.03
40205;BME280;26963;42.666;23.366;2023-06-22T02:19:50;95358.97;;;21.05;58.25
40205;BME280;26963;42.666;23.366;2023-06-22T02:22:16;95355.00;;;21.02;58.28
40205;BME280;26963;42.666;23.366;2023-06-22T02:24:41;95364.31;;;21.01;58.46
40205;BME280;26963;42.666;23.366;2023-06-22T02:27:07;95363.94;;;20.87;59.18
40205;BME280;26963;42.666;23.366;2023-06-22T02:29:33;95360.34;;;20.83;59.78
40205;BME280;26963;42.666;23.366;2023-06-22T02:31:58;95370.25;;;20.91;59.32
40205;BME280;26963;42.666;23.366;2023-06-22T02:34:24;95366.22;;;20.85;59.15
40205;BME280;26963;42.666;23.366;2023-06-22T02:36:51;95306.88;;;20.46;59.20
40205;BME280;26963;42.666;23.366;2023-06-22T02:39:25;95355.63;;;20.67;59.93
40205;BME280;26963;42.666;23.366;2023-06-22T02:41:52;95270.03;;;20.04;59.75
40205;BME280;26963;42.666;23.366;2023-06-22T02:44:19;95374.66;;;20.67;60.02
40205;BME280;26963;42.666;23.366;2023-06-22T02:46:45;95364.59;;;20.56;60.18
40205;BME280;26963;42.666;23.366;2023-06-22T02:49:11;95374.81;;;20.59;60.25
40205;BME280;26963;42.666;23.366;2023-06-22T02:51:41;95371.53;;;20.53;60.57
40205;BME280;26963;42.666;23.366;2023-06-22T02:54:07;95376.28;;;20.56;60.55
40205;BME280;26963;42.666;23.366;2023-06-22T02:56:32;95360.47;;;20.46;60.84
40205;BME280;26963;42.666;23.366;2023-06-22T02:58:58;95385.78;;;20.62;60.55
40205;BME280;26963;42.666;23.366;2023-06-22T03:01:27;95375.38;;;20.52;60.30
40205;BME280;26963;42.666;23.366;2023-06-22T03:03:53;95381.50;;;20.49;60.43
40205;BME280;26963;42.666;23.366;2023-06-22T03:06:20;95381.06;;;20.47;59.62
40205;BME280;26963;42.666;23.366;2023-06-22T03:08:51;95369.28;;;20.43;58.96
40205;BME280;26963;42.666;23.366;2023-06-22T03:11:16;95366.56;;;20.43;58.99
40205;BME280;26963;42.666;23.366;2023-06-22T03:13:43;95367.38;;;20.43;58.81
40205;BME280;26963;42.666;23.366;2023-06-22T03:16:08;95384.34;;;20.52;59.27
40205;BME280;26963;42.666;23.366;2023-06-22T03:18:34;95381.00;;;20.59;59.04
40205;BME280;26963;42.666;23.366;2023-06-22T03:20:59;95381.00;;;20.59;59.12
40205;BME280;26963;42.666;23.366;2023-06-22T03:23:27;95331.53;;;20.25;58.93
40205;BME280;26963;42.666;23.366;2023-06-22T03:25:53;95310.41;;;20.06;59.62
40205;BME280;26963;42.666;23.366;2023-06-22T03:28:21;95397.44;;;20.63;59.88
40205;BME280;26963;42.666;23.366;2023-06-22T03:30:47;95399.34;;;20.75;60.00
40205;BME280;26963;42.666;23.366;2023-06-22T03:33:13;95407.94;;;20.77;60.21
40205;BME280;26963;42.666;23.366;2023-06-22T03:35:38;95397.53;;;20.79;60.21
40205;BME280;26963;42.666;23.366;2023-06-22T03:38:04;95417.72;;;20.94;59.84
40205;BME280;26963;42.666;23.366;2023-06-22T03:40:30;95404.81;;;20.91;59.58
40205;BME280;26963;42.666;23.366;2023-06-22T03:42:55;95406.94;;;20.97;59.46
40205;BME280;26963;42.666;23.366;2023-06-22T03:45:21;95427.72;;;21.18;58.70
40205;BME280;26963;42.666;23.366;2023-06-22T03:47:46;95424.03;;;21.26;58.70
40205;BME280;26963;42.666;23.366;2023-06-22T03:50:12;95421.25;;;21.39;58.51
40205;BME280;26963;42.666;23.366;2023-06-22T03:52:39;95415.28;;;21.49;58.44
40205;BME280;26963;42.666;23.366;2023-06-22T03:55:06;95415.22;;;21.61;57.40
40205;BME280;26963;42.666;23.366;2023-06-22T03:57:31;95419.59;;;21.82;56.69
40205;BME280;26963;42.666;23.366;2023-06-22T03:59:58;95436.91;;;22.06;56.52
40205;BME280;26963;42.666;23.366;2023-06-22T04:02:24;95411.47;;;22.18;55.88
40205;BME280;26963;42.666;23.366;2023-06-22T04:04:50;95416.78;;;22.46;55.25
40205;BME280;26963;42.666;23.366;2023-06-22T04:07:15;95429.25;;;22.47;54.42
40205;BME280;26963;42.666;23.366;2023-06-22T04:09:41;95429.25;;;22.47;53.70
40205;BME280;26963;42.666;23.366;2023-06-22T04:12:07;95422.44;;;22.57;53.74
40205;BME280;26963;42.666;23.366;2023-06-22T04:14:32;95416.94;;;22.92;53.26
40205;BME280;26963;42.666;23.366;2023-06-22T04:16:58;95411.94;;;23.60;51.88
40205;BME280;26963;42.666;23.366;2023-06-22T04:19:24;95413.94;;;24.40;50.33
40205;BME280;26963;42.666;23.366;2023-06-22T04:21:49;95415.03;;;24.93;48.74
40205;BME280;26963;42.666;23.366;2023-06-22T04:24:15;95377.38;;;25.20;46.38
40205;BME280;26963;42.666;23.366;2023-06-22T04:26:40;95397.03;;;25.71;44.89
40205;BME280;26963;42.666;23.366;2023-06-22T04:29:07;95401.81;;;26.37;43.60
40205;BME280;26963;42.666;23.366;2023-06-22T04:31:37;95400.69;;;26.45;43.36
40205;BME280;26963;42.666;23.366;2023-06-22T04:34:04;95340.69;;;26.33;42.53
40205;BME280;26963;42.666;23.366;2023-06-22T04:36:40;95399.03;;;27.22;41.53
40205;BME280;26963;42.666;23.366;2023-06-22T04:39:10;95348.78;;;27.03;41.18
40205;BME280;26963;42.666;23.366;2023-06-22T04:41:37;95378.69;;;27.59;40.67
40205;BME280;26963;42.666;23.366;2023-06-22T04:44:12;95388.50;;;28.28;38.81
40205;BME280;26963;42.666;23.366;2023-06-22T04:46:39;95393.94;;;28.68;38.24
40205;BME280;26963;42.666;23.366;2023-06-22T04:49:08;95392.88;;;29.22;37.33
40205;BME280;26963;42.666;23.366;2023-06-22T04:51:40;95384.16;;;29.87;35.78
40205;BME280;26963;42.666;23.366;2023-06-22T04:54:07;95406.50;;;30.49;35.07
40205;BME280;26963;42.666;23.366;2023-06-22T04:56:33;95400.94;;;30.87;34.50
40205;BME280;26963;42.666;23.366;2023-06-22T04:58:59;95407.59;;;30.17;34.99
40205;BME280;26963;42.666;23.366;2023-06-22T05:01:25;95422.53;;;28.96;37.39
40205;BME280;26963;42.666;23.366;2023-06-22T05:03:51;95421.13;;;28.08;39.29
40205;BME280;26963;42.666;23.366;2023-06-22T05:06:22;95393.94;;;27.20;40.91
40205;BME280;26963;42.666;23.366;2023-06-22T05:08:58;95431.44;;;26.76;42.34
40205;BME280;26963;42.666;23.366;2023-06-22T05:11:25;95414.69;;;26.26;43.93
40205;BME280;26963;42.666;23.366;2023-06-22T05:13:51;95343.09;;;25.34;44.94
40205;BME280;26963;42.666;23.366;2023-06-22T05:16:16;95415.19;;;25.42;45.71
40205;BME280;26963;42.666;23.366;2023-06-22T05:18:42;95418.78;;;25.15;47.03
40205;BME280;26963;42.666;23.366;2023-06-22T05:21:08;95408.31;;;24.87;47.83
40205;BME280;26963;42.666;23.366;2023-06-22T05:23:34;95410.47;;;24.70;48.52
40205;BME280;26963;42.666;23.366;2023-06-22T05:26:00;95410.88;;;24.46;48.47
40205;BME280;26963;42.666;23.366;2023-06-22T05:28:25;95370.56;;;24.08;49.27
40205;BME280;26963;42.666;23.366;2023-06-22T05:30:51;95369.63;;;23.97;49.73
40205;BME280;26963;42.666;23.366;2023-06-22T05:33:17;95413.97;;;24.14;50.21
40205;BME280;26963;42.666;23.366;2023-06-22T05:35:42;95426.13;;;24.16;49.96
40205;BME280;26963;42.666;23.366;2023-06-22T05:38:08;95434.56;;;24.07;50.05
40205;BME280;26963;42.666;23.366;2023-06-22T05:40:34;95427.78;;;23.98;49.90
40205;BME280;26963;42.666;23.366;2023-06-22T05:42:59;95449.97;;;23.92;50.64
40205;BME280;26963;42.666;23.366;2023-06-22T05:45:27;95444.09;;;23.71;50.88
40205;BME280;26963;42.666;23.366;2023-06-22T05:47:52;95449.88;;;23.66;51.73
40205;BME280;26963;42.666;23.366;2023-06-22T05:50:18;95453.44;;;23.70;51.84
40205;BME280;26963;42.666;23.366;2023-06-22T05:52:43;95459.03;;;23.77;52.07
40205;BME280;26963;42.666;23.366;2023-06-22T05:55:09;95453.53;;;23.73;51.65
40205;BME280;26963;42.666;23.366;2023-06-22T05:57:34;95458.31;;;23.80;52.34
40205;BME280;26963;42.666;23.366;2023-06-22T06:00:00;95438.66;;;23.71;52.01
40205;BME280;26963;42.666;23.366;2023-06-22T06:02:25;95441.19;;;23.83;52.19
40205;BME280;26963;42.666;23.366;2023-06-22T06:04:51;95437.88;;;23.93;51.60
40205;BME280;26963;42.666;23.366;2023-06-22T06:07:18;95369.19;;;23.72;51.11
40205;BME280;26963;42.666;23.366;2023-06-22T06:09:43;95402.88;;;24.03;50.75
40205;BME280;26963;42.666;23.366;2023-06-22T06:12:09;95420.53;;;24.36;50.59
40205;BME280;26963;42.666;23.366;2023-06-22T06:14:35;95425.72;;;24.71;49.37
40205;BME280;26963;42.666;23.366;2023-06-22T06:17:00;95424.00;;;25.65;47.21
40205;BME280;26963;42.666;23.366;2023-06-22T06:19:26;95411.72;;;27.73;42.46
40205;BME280;26963;42.666;23.366;2023-06-22T06:21:51;95427.44;;;30.42;37.04
40205;BME280;26963;42.666;23.366;2023-06-22T06:24:17;95421.50;;;32.46;32.58
40205;BME280;26963;42.666;23.366;2023-06-22T06:26:42;95425.13;;;33.97;29.83
40205;BME280;26963;42.666;23.366;2023-06-22T06:29:08;95427.63;;;35.42;28.02
40205;BME280;26963;42.666;23.366;2023-06-22T06:31:33;95418.50;;;36.54;26.17
40205;BME280;26963;42.666;23.366;2023-06-22T06:33:59;95427.03;;;37.48;24.75
40205;BME280;26963;42.666;23.366;2023-06-22T06:36:25;95411.97;;;38.27;23.62
40205;BME280;26963;42.666;23.366;2023-06-22T06:38:51;95413.66;;;38.99;21.89
40205;BME280;26963;42.666;23.366;2023-06-22T06:41:16;95423.00;;;39.57;21.67
40205;BME280;26963;42.666;23.366;2023-06-22T06:43:42;95388.28;;;39.73;21.58
40205;BME280;26963;42.666;23.366;2023-06-22T06:46:09;95406.75;;;40.77;20.78
40205;BME280;26963;42.666;23.366;2023-06-22T06:48:35;95343.16;;;39.38;21.70
40205;BME280;26963;42.666;23.366;2023-06-22T06:51:00;95335.44;;;38.53;22.53
40205;BME280;26963;42.666;23.366;2023-06-22T06:53:26;95412.44;;;38.72;23.24
40205;BME280;26963;42.666;23.366;2023-06-22T06:55:52;95396.91;;;38.43;22.75
40205;BME280;26963;42.666;23.366;2023-06-22T06:58:18;95409.47;;;37.79;23.68
40205;BME280;26963;42.666;23.366;2023-06-22T07:00:43;95390.31;;;36.74;25.27
40205;BME280;26963;42.666;23.366;2023-06-22T07:03:09;95409.91;;;35.74;26.45
40205;BME280;26963;42.666;23.366;2023-06-22T07:05:34;95357.31;;;34.27;27.63
40205;BME280;26963;42.666;23.366;2023-06-22T07:08:01;95407.25;;;33.81;28.34
40205;BME280;26963;42.666;23.366;2023-06-22T07:10:28;95414.06;;;33.60;29.58
40205;BME280;26963;42.666;23.366;2023-06-22T07:12:53;95353.38;;;33.62;28.94
40205;BME280;26963;42.666;23.366;2023-06-22T07:15:19;95393.66;;;34.50;28.74
40205;BME280;26963;42.666;23.366;2023-06-22T07:17:44;95389.50;;;36.73;25.62
40205;BME280;26963;42.666;23.366;2023-06-22T07:20:10;95384.34;;;38.66;23.33
40205;BME280;26963;42.666;23.366;2023-06-22T07:22:42;95379.47;;;39.66;21.83
40205;BME280;26963;42.666;23.366;2023-06-22T07:25:08;95353.09;;;40.30;20.80
40205;BME280;26963;42.666;23.366;2023-06-22T07:30:27;95404.28;;;41.39;19.99
40205;BME280;26963;42.666;23.366;2023-06-22T07:32:53;95319.22;;;40.88;19.76
40205;BME280;26963;42.666;23.366;2023-06-22T07:35:19;95403.28;;;41.87;18.79
40205;BME280;26963;42.666;23.366;2023-06-22T07:37:44;95394.75;;;42.37;18.50
40205;BME280;26963;42.666;23.366;2023-06-22T07:40:10;95373.66;;;42.68;18.57
40205;BME280;26963;42.666;23.366;2023-06-22T07:42:36;95366.94;;;43.13;18.25
40205;BME280;26963;42.666;23.366;2023-06-22T07:45:03;95399.56;;;43.57;17.28
40205;BME280;26963;42.666;23.366;2023-06-22T07:47:29;95409.44;;;43.79;17.94
40205;BME280;26963;42.666;23.366;2023-06-22T07:49:57;95414.38;;;43.90;17.12
40205;BME280;26963;42.666;23.366;2023-06-22T07:52:24;95393.19;;;43.62;17.55
40205;BME280;26963;42.666;23.366;2023-06-22T07:54:50;95397.78;;;43.97;17.22
40205;BME280;26963;42.666;23.366;2023-06-22T07:57:16;95407.16;;;43.51;17.21
40205;BME280;26963;42.666;23.366;2023-06-22T07:59:42;95391.47;;;43.71;17.63
40205;BME280;26963;42.666;23.366;2023-06-22T08:02:07;95353.94;;;43.53;16.90
40205;BME280;26963;42.666;23.366;2023-06-22T08:04:34;95390.16;;;43.40;17.73
40205;BME280;26963;42.666;23.366;2023-06-22T08:07:00;95392.69;;;43.38;17.81
40205;BME280;26963;42.666;23.366;2023-06-22T08:09:31;95389.38;;;42.81;17.69
40205;BME280;26963;42.666;23.366;2023-06-22T08:11:57;95329.53;;;42.60;18.13
40205;BME280;26963;42.666;23.366;2023-06-22T08:14:25;95381.81;;;43.19;17.90
40205;BME280;26963;42.666;23.366;2023-06-22T08:16:50;95386.34;;;43.11;17.84
40205;BME280;26963;42.666;23.366;2023-06-22T08:19:16;95402.34;;;42.31;18.11
40205;BME280;26963;42.666;23.366;2023-06-22T08:21:43;95342.63;;;41.30;18.88
40205;BME280;26963;42.666;23.366;2023-06-22T08:24:09;95371.91;;;41.73;19.31
40205;BME280;26963;42.666;23.366;2023-06-22T08:26:34;95381.53;;;41.07;19.88
40205;BME280;26963;42.666;23.366;2023-06-22T08:29:03;95321.44;;;41.29;19.33
40205;BME280;26963;42.666;23.366;2023-06-22T08:31:30;95368.31;;;42.71;18.41
40205;BME280;26963;42.666;23.366;2023-06-22T08:33:55;95367.72;;;42.04;18.68
40205;BME280;26963;42.666;23.366;2023-06-22T08:36:22;95325.31;;;40.56;20.08
40205;BME280;26963;42.666;23.366;2023-06-22T08:38:47;95362.78;;;39.71;20.97
40205;BME280;26963;42.666;23.366;2023-06-22T08:41:19;95338.03;;;38.75;22.72
40205;BME280;26963;42.666;23.366;2023-06-22T08:43:45;95363.34;;;38.25;22.93
40205;BME280;26963;42.666;23.366;2023-06-22T08:46:11;95370.56;;;37.85;22.88
40205;BME280;26963;42.666;23.366;2023-06-22T08:48:36;95329.13;;;37.74;23.64
40205;BME280;26963;42.666;23.366;2023-06-22T08:51:02;95323.84;;;36.95;24.72
40205;BME280;26963;42.666;23.366;2023-06-22T08:53:28;95363.78;;;36.69;25.45
40205;BME280;26963;42.666;23.366;2023-06-22T08:55:54;95379.06;;;37.09;25.45
40205;BME280;26963;42.666;23.366;2023-06-22T08:58:19;95359.91;;;38.02;24.27
40205;BME280;26963;42.666;23.366;2023-06-22T09:00:47;95366.97;;;39.76;23.01
40205;BME280;26963;42.666;23.366;2023-06-22T09:03:13;95206.28;;;39.88;20.79
40205;BME280;26963;42.666;23.366;2023-06-22T09:05:38;95349.97;;;41.78;20.26
40205;BME280;26963;42.666;23.366;2023-06-22T09:08:04;95349.72;;;42.58;19.59
40205;BME280;26963;42.666;23.366;2023-06-22T09:10:30;95358.06;;;43.26;19.36
40205;BME280;26963;42.666;23.366;2023-06-22T09:12:56;95353.75;;;43.68;18.07
40205;BME280;26963;42.666;23.366;2023-06-22T09:15:22;95369.09;;;44.05;17.48
40205;BME280;26963;42.666;23.366;2023-06-22T09:17:48;95346.03;;;44.01;17.24
40205;BME280;26963;42.666;23.366;2023-06-22T09:20:14;95359.41;;;44.17;15.96
40205;BME280;26963;42.666;23.366;2023-06-22T09:22:40;95352.22;;;44.10;16.56
40205;BME280;26963;42.666;23.366;2023-06-22T09:25:05;95347.72;;;43.81;16.58
40205;BME280;26963;42.666;23.366;2023-06-22T09:27:31;95344.81;;;43.38;17.37
40205;BME280;26963;42.666;23.366;2023-06-22T09:29:57;95339.88;;;42.68;17.40
40205;BME280;26963;42.666;23.366;2023-06-22T09:32:24;95362.91;;;42.05;18.70
40205;BME280;26963;42.666;23.366;2023-06-22T09:34:50;95360.53;;;40.72;20.19
40205;BME280;26963;42.666;23.366;2023-06-22T09:37:17;95350.44;;;39.44;21.34
40205;BME280;26963;42.666;23.366;2023-06-22T09:39:42;95291.00;;;38.17;22.82
40205;BME280;26963;42.666;23.366;2023-06-22T09:42:08;95350.41;;;37.90;23.40
40205;BME280;26963;42.666;23.366;2023-06-22T09:44:34;95363.44;;;37.43;24.49
40205;BME280;26963;42.666;23.366;2023-06-22T09:47:00;95358.06;;;36.95;25.25
40205;BME280;26963;42.666;23.366;2023-06-22T09:49:25;95346.28;;;36.47;26.26
40205;BME280;26963;42.666;23.366;2023-06-22T09:51:51;95354.84;;;36.17;26.10
40205;BME280;26963;42.666;23.366;2023-06-22T09:54:17;95332.09;;;35.71;26.22
40205;BME280;26963;42.666;23.366;2023-06-22T09:56:43;95312.88;;;35.25;26.74
40205;BME280;26963;42.666;23.366;2023-06-22T09:59:08;95278.69;;;34.73;27.30
40205;BME280;26963;42.666;23.366;2023-06-22T10:01:34;95356.81;;;34.91;27.47
40205;BME280;26963;42.666;23.366;2023-06-22T10:04:01;95335.91;;;34.57;27.97
40205;BME280;26963;42.666;23.366;2023-06-22T10:06:27;95340.63;;;34.44;28.29
40205;BME280;26963;42.666;23.366;2023-06-22T10:08:52;95350.19;;;34.26;28.32
40205;BME280;26963;42.666;23.366;2023-06-22T10:11:18;95338.44;;;34.06;28.61
40205;BME280;26963;42.666;23.366;2023-06-22T10:13:43;95333.38;;;33.88;28.52
40205;BME280;26963;42.666;23.366;2023-06-22T10:16:09;95215.03;;;32.98;28.27
40205;BME280;26963;42.666;23.366;2023-06-22T10:18:34;95335.69;;;33.56;28.49
40205;BME280;26963;42.666;23.366;2023-06-22T10:21:00;95334.72;;;33.30;28.55
40205;BME280;26963;42.666;23.366;2023-06-22T10:23:26;95335.72;;;33.20;28.75
40205;BME280;26963;42.666;23.366;2023-06-22T10:25:51;95307.88;;;32.90;29.23
40205;BME280;26963;42.666;23.366;2023-06-22T10:28:17;95335.59;;;32.90;30.26
40205;BME280;26963;42.666;23.366;2023-06-22T10:30:43;95332.13;;;32.86;31.22
40205;BME280;26963;42.666;23.366;2023-06-22T10:33:10;95335.03;;;32.79;31.27
40205;BME280;26963;42.666;23.366;2023-06-22T10:35:36;95288.88;;;32.52;30.33
40205;BME280;26963;42.666;23.366;2023-06-22T10:38:05;95322.16;;;32.68;29.92
40205;BME280;26963;42.666;23.366;2023-06-22T10:40:31;95284.47;;;32.34;29.85
40205;BME280;26963;42.666;23.366;2023-06-22T10:42:57;95318.47;;;32.35;29.22
40205;BME280;26963;42.666;23.366;2023-06-22T10:45:22;95282.84;;;31.93;29.30
40205;BME280;26963;42.666;23.366;2023-06-22T10:47:48;95266.09;;;31.80;29.49
40205;BME280;26963;42.666;23.366;2023-06-22T10:50:14;95309.06;;;32.09;30.30
40205;BME280;26963;42.666;23.366;2023-06-22T10:52:40;95291.66;;;31.88;30.43
40205;BME280;26963;42.666;23.366;2023-06-22T10:55:08;95302.47;;;32.02;30.89
40205;BME280;26963;42.666;23.366;2023-06-22T10:57:33;95311.34;;;32.14;30.78
40205;BME280;26963;42.666;23.366;2023-06-22T10:59:59;95265.03;;;31.74;30.28
40205;BME280;26963;42.666;23.366;2023-06-22T11:02:25;95287.03;;;31.81;30.31
40205;BME280;26963;42.666;23.366;2023-06-22T11:04:51;95303.19;;;31.83;31.32
40205;BME280;26963;42.666;23.366;2023-06-22T11:07:16;95308.31;;;31.84;30.12
40205;BME280;26963;42.666;23.366;2023-06-22T11:09:45;95305.03;;;31.69;30.52
40205;BME280;26963;42.666;23.366;2023-06-22T11:12:10;95308.50;;;31.74;30.90
40205;BME280;26963;42.666;23.366;2023-06-22T11:14:36;95296.41;;;31.64;31.26
40205;BME280;26963;42.666;23.366;2023-06-22T11:17:02;95278.78;;;31.54;30.01
40205;BME280;26963;42.666;23.366;2023-06-22T11:19:27;95261.81;;;31.28;29.74
40205;BME280;26963;42.666;23.366;2023-06-22T11:21:53;95269.75;;;31.26;29.86
40205;BME280;26963;42.666;23.366;2023-06-22T11:24:18;95197.00;;;30.82;30.92
40205;BME280;26963;42.666;23.366;2023-06-22T11:26:44;95271.91;;;31.38;31.58
40205;BME280;26963;42.666;23.366;2023-06-22T11:29:09;95268.38;;;31.38;31.13
40205;BME280;26963;42.666;23.366;2023-06-22T11:31:35;95275.28;;;31.50;30.82
40205;BME280;26963;42.666;23.366;2023-06-22T11:34:01;95231.19;;;31.19;31.34
40205;BME280;26963;42.666;23.366;2023-06-22T11:36:28;95269.59;;;31.37;31.26
40205;BME280;26963;42.666;23.366;2023-06-22T11:38:54;95277.34;;;31.46;30.97
40205;BME280;26963;42.666;23.366;2023-06-22T11:41:20;95248.59;;;31.16;31.38
40205;BME280;26963;42.666;23.366;2023-06-22T11:43:45;95279.19;;;31.29;31.33
40205;BME280;26963;42.666;23.366;2023-06-22T11:46:11;95270.69;;;31.16;32.16
40205;BME280;26963;42.666;23.366;2023-06-22T11:48:37;95278.94;;;31.19;31.57
40205;BME280;26963;42.666;23.366;2023-06-22T11:51:03;95170.53;;;30.57;31.54
40205;BME280;26963;42.666;23.366;2023-06-22T11:53:29;95208.88;;;30.79;31.40
40205;BME280;26963;42.666;23.366;2023-06-22T11:55:55;95204.94;;;30.80;31.38
40205;BME280;26963;42.666;23.366;2023-06-22T11:58:22;95262.19;;;31.30;31.01
40205;BME280;26963;42.666;23.366;2023-06-22T12:00:48;95209.25;;;31.04;30.00
40205;BME280;26963;42.666;23.366;2023-06-22T12:03:13;95251.75;;;31.42;30.96
40205;BME280;26963;42.666;23.366;2023-06-22T12:05:40;95256.06;;;31.43;30.51
40205;BME280;26963;42.666;23.366;2023-06-22T12:08:06;95266.03;;;31.60;30.02
40205;BME280;26963;42.666;23.366;2023-06-22T12:10:32;95230.09;;;31.36;30.27
40205;BME280;26963;42.666;23.366;2023-06-22T12:12:57;95214.28;;;31.37;31.32
40205;BME280;26963;42.666;23.366;2023-06-22T12:15:25;95213.50;;;31.36;30.22
40205;BME280;26963;42.666;23.366;2023-06-22T12:17:50;95261.56;;;31.43;30.21
40205;BME280;26963;42.666;23.366;2023-06-22T12:20:16;95269.88;;;31.19;32.56
40205;BME280;26963;42.666;23.366;2023-06-22T12:22:41;95275.28;;;30.37;34.70
40205;BME280;26963;42.666;23.366;2023-06-22T12:25:07;95280.81;;;30.02;35.75
40205;BME280;26963;42.666;23.366;2023-06-22T12:27:34;95290.47;;;29.80;36.43
40205;BME280;26963;42.666;23.366;2023-06-22T12:30:00;95285.22;;;29.51;36.51
40205;BME280;26963;42.666;23.366;2023-06-22T12:32:26;95288.91;;;29.33;37.10
40205;BME280;26963;42.666;23.366;2023-06-22T12:34:51;95302.72;;;29.22;37.08
40205;BME280;26963;42.666;23.366;2023-06-22T12:37:17;95297.25;;;29.19;36.58
40205;BME280;26963;42.666;23.366;2023-06-22T12:39:43;95216.56;;;28.62;36.95
40205;BME280;26963;42.666;23.366;2023-06-22T12:42:09;95327.50;;;29.26;37.36
40205;BME280;26963;42.666;23.366;2023-06-22T12:44:35;95321.25;;;29.22;38.07
40205;BME280;26963;42.666;23.366;2023-06-22T12:47:00;95307.50;;;29.15;38.42
40205;BME280;26963;42.666;23.366;2023-06-22T12:49:26;95320.19;;;29.05;40.22
40205;BME280;26963;42.666;23.366;2023-06-22T12:51:51;95345.34;;;29.03;40.29
40205;BME280;26963;42.666;23.366;2023-06-22T12:54:17;95346.19;;;28.93;40.32
40205;BME280;26963;42.666;23.366;2023-06-22T12:56:43;95290.56;;;28.45;40.58
40205;BME280;26963;42.666;23.366;2023-06-22T12:59:10;95296.09;;;28.38;41.01